00:53 MTB Zirl - Moetz
Ort Zirl Datum 27.07.2011 18:15:09
Kategorie MTB
Distanz 25,59 Kilometer Steigung 0,0 Meter Gefälle 0,0 Meter
Gesamt Zeit 00:53:29 Aktiv 00:53:29 Pause 00:00:00
Durchs. Tempo 28,7 km/h Tempo max. 36,1 km/h Tempo min. 11,6 km/h
Kalorien 0 Durchs. HF 141 BPM HF max. 153 BPM
Wetter 20 °C LightRain
Ausrüstung Avid - Juicy BB7 organic
Schwalbe - Nobby Nic vorne
Schwalbe - Racing Ralph hinten
Shimano - HG-93 XT
Specialized - BG S-Works MTB
Specialized - Stumpjumper Comp
Notiz Zirl - Moetz ... tw. Nieselregen, windig, GA2 ... garmin connect
Splits
Distanz (km) Gesamt Zeit Split Zeit Split Tempo Split Tempo Höhenprofil (m)
1,00 00:03:24 00:03:24 00:03:24 17,6 2,00
2,00 00:05:29 00:02:05 00:02:05 28,8 1,00
3,00 00:07:33 00:02:04 00:02:04 29,0 3,55
4,00 00:09:35 00:02:02 00:02:02 29,5 0,45
5,00 00:11:39 00:02:04 00:02:04 29,0 1,43
6,00 00:13:49 00:02:10 00:02:10 27,7 2,57
7,00 00:15:47 00:01:58 00:01:58 30,5 3,00
8,00 00:17:44 00:01:57 00:01:57 30,8 0,00
9,00 00:19:43 00:01:59 00:01:59 30,3 9,32
10,00 00:21:46 00:02:03 00:02:03 29,3 -0,45
11,00 00:23:55 00:02:09 00:02:09 27,9 -4,87
12,00 00:25:52 00:01:57 00:01:57 30,8 0,00
13,00 00:27:54 00:02:02 00:02:02 29,5 6,80
14,00 00:29:53 00:01:59 00:01:59 30,3 -2,58
15,00 00:31:52 00:01:59 00:01:59 30,3 6,68
16,00 00:33:48 00:01:56 00:01:56 31,0 -0,28
17,00 00:35:35 00:01:47 00:01:47 33,6 4,38
18,00 00:37:39 00:02:04 00:02:04 29,0 2,27
19,00 00:39:59 00:02:20 00:02:20 25,7 7,19
20,00 00:41:43 00:01:44 00:01:44 34,6 2,43
21,00 00:43:39 00:01:56 00:01:56 31,0 -3,30
22,00 00:45:43 00:02:04 00:02:04 29,0 1,41
23,00 00:47:51 00:02:08 00:02:08 28,1 0,97
24,00 00:49:55 00:02:04 00:02:04 29,0 3,03
25,00 00:52:08 00:02:13 00:02:13 27,1 1,97